Time;durP1;ratioP1;P1;durP2;ratioP2;P2;SDS_P1;SDS_P2;PMS_P1;PMS_P2;Temp;Humidity;BMP_temperature;BMP_pressure;BME280_temperature;BME280_humidity;BME280_pressure;Samples;Min_cycle;Max_cycle;Signal;HPM_P1;HPM_P2
2023/12/09 00:01:02;;;;;;;;;;;;;;;;;;5118396;27;927;-60
2023/12/09 00:03:27;;;;;;;;;;;;;;;;;;5118714;27;1963;-60
2023/12/09 00:05:53;;;;;;;;;;;;;;;;;;5137049;27;832;-60
2023/12/09 00:08:18;;;;;;;;;;;;;;;;;;5137150;27;922;-60
2023/12/09 00:10:43;;;;;;;;;;;;;;;;;;5137475;27;1188;-60
2023/12/09 00:13:10;;;;;;;;;;;;;;;;;;5137026;27;1146;-60
2023/12/09 00:15:36;;;;;;;;;;;;;;;;;;5137889;27;879;-61
2023/12/09 00:18:02;;;;;;;;;;;;;;;;;;5137019;27;938;-60
2023/12/09 00:20:28;;;;;;;;;;;;;;;;;;5137355;27;876;-61
2023/12/09 00:22:53;;;;;;;;;;;;;;;;;;5136013;27;1970;-60
2023/12/09 00:25:18;;;;;;;;;;;;;;;;;;5136074;27;867;-61
2023/12/09 00:27:44;;;;;;;;;;;;;;;;;;5137007;27;900;-61
2023/12/09 00:30:09;;;;;;;;;;;;;;;;;;5118755;27;867;-61
2023/12/09 00:32:35;;;;;;;;;;;;;;;;;;5136601;27;848;-60
2023/12/09 00:35:00;;;;;;;;;;;;;;;;;;5136834;27;1049;-60
2023/12/09 00:37:26;;;;;;;;;;;;;;;;;;5136533;27;1078;-61
2023/12/09 00:39:51;;;;;;;;;;;;;;;;;;5137056;27;1026;-61
2023/12/09 00:42:16;;;;;;;;;;;;;;;;;;5136310;27;1969;-61
2023/12/09 00:44:42;;;;;;;;;;;;;;;;;;5136254;27;1054;-61
2023/12/09 00:47:07;;;;;;;;;;;;;;;;;;5136548;27;967;-60
2023/12/09 00:49:32;;;;;;;;;;;;;;;;;;5136356;27;923;-59
2023/12/09 00:51:57;;;;;;;;;;;;;;;;;;5136077;27;911;-60
2023/12/09 00:54:23;;;;;;;;;;;;;;;;;;5136424;27;998;-59
2023/12/09 00:56:48;;;;;;;;;;;;;;;;;;5136326;27;902;-60
2023/12/09 00:59:13;;;;;;;;;;;;;;;;;;5136361;27;1002;-60
2023/12/09 01:01:39;;;;;;;;;;;;;;;;;;5136246;27;1963;-60
2023/12/09 01:04:05;;;;;;;;;;;;;;;;;;5118384;27;842;-60
2023/12/09 01:06:31;;;;;;;;;;;;;;;;;;5136343;27;831;-61
2023/12/09 01:08:56;;;;;;;;;;;;;;;;;;5136045;27;923;-60
2023/12/09 01:11:21;;;;;;;;;;;;;;;;;;5136471;27;851;-61
2023/12/09 01:13:46;;;;;;;;;;;;;;;;;;5136044;27;875;-60
2023/12/09 01:16:12;;;;;;;;;;;;;;;;;;5135821;27;931;-60
2023/12/09 01:18:37;;;;;;;;;;;;;;;;;;5135916;27;851;-61
2023/12/09 01:21:03;;;;;;;;;;;;;;;;;;5135763;27;884;-60
2023/12/09 01:23:28;;;;;;;;;;;;;;;;;;5134899;27;1955;-61
2023/12/09 01:25:53;;;;;;;;;;;;;;;;;;5135617;27;1074;-60
2023/12/09 01:28:18;;;;;;;;;;;;;;;;;;5135137;27;911;-61
2023/12/09 01:30:43;;;;;;;;;;;;;;;;;;5135592;27;923;-61
2023/12/09 01:33:09;;;;;;;;;;;;;;;;;;5135181;27;828;-60
2023/12/09 01:35:34;;;;;;;;;;;;;;;;;;5135376;27;1069;-60
2023/12/09 01:37:59;;;;;;;;;;;;;;;;;;5135079;27;832;-61
2023/12/09 01:40:24;;;;;;;;;;;;;;;;;;5135389;27;888;-61
2023/12/09 01:42:49;;;;;;;;;;;;;;;;;;5135548;27;1977;-61
2023/12/09 01:45:15;;;;;;;;;;;;;;;;;;5135642;27;864;-60
2023/12/09 01:47:41;;;;;;;;;;;;;;;;;;5135509;27;812;-60
2023/12/09 01:50:07;;;;;;;;;;;;;;;;;;5135501;28;907;-60
2023/12/09 01:52:33;;;;;;;;;;;;;;;;;;5134849;28;852;-60
2023/12/09 01:54:59;;;;;;;;;;;;;;;;;;5137401;27;887;-60
2023/12/09 01:57:25;;;;;;;;;;;;;;;;;;5139431;27;852;-60
2023/12/09 01:59:50;;;;;;;;;;;;;;;;;;5139878;27;851;-60
2023/12/09 02:02:15;;;;;;;;;;;;;;;;;;5139886;27;1898;-61
2023/12/09 02:04:41;;;;;;;;;;;;;;;;;;5139473;27;928;-59
2023/12/09 02:07:06;;;;;;;;;;;;;;;;;;5121120;27;1473;-61
2023/12/09 02:09:32;;;;;;;;;;;;;;;;;;5139938;27;899;-59
2023/12/09 02:12:04;;;;;;;;;;;;;;;;;;5139544;27;1053;-61
2023/12/09 02:14:34;;;;;;;;;;;;;;;;;;5139771;27;821;-61
2023/12/09 02:17:03;;;;;;;;;;;;;;;;;;5139010;27;805;-60
2023/12/09 02:19:29;;;;;;;;;;;;;;;;;;5138967;27;896;-60
2023/12/09 02:22:01;;;;;;;;;;;;;;;;;;5138578;27;1897;-60
2023/12/09 02:24:26;;;;;;;;;;;;;;;;;;5138798;27;864;-60
2023/12/09 02:26:52;;;;;;;;;;;;;;;;;;5139199;27;840;-60
2023/12/09 02:29:18;;;;;;;;;;;;;;;;;;5138812;27;948;-61
2023/12/09 02:31:45;;;;;;;;;;;;;;;;;;5138389;27;906;-61
2023/12/09 02:34:12;;;;;;;;;;;;;;;;;;5138350;27;884;-61
2023/12/09 02:36:39;;;;;;;;;;;;;;;;;;5138990;27;1005;-60
2023/12/09 02:39:06;;;;;;;;;;;;;;;;;;5138695;27;758;-60
2023/12/09 02:41:32;;;;;;;;;;;;;;;;;;5138471;27;1909;-60
2023/12/09 02:43:57;;;;;;;;;;;;;;;;;;5138404;27;967;-60
2023/12/09 02:46:23;;;;;;;;;;;;;;;;;;5138157;27;876;-60
2023/12/09 02:48:48;;;;;;;;;;;;;;;;;;5138174;27;914;-60
2023/12/09 02:51:13;;;;;;;;;;;;;;;;;;5138360;27;835;-60
2023/12/09 02:53:38;;;;;;;;;;;;;;;;;;5138197;27;942;-60
2023/12/09 02:56:04;;;;;;;;;;;;;;;;;;5138796;27;915;-60
2023/12/09 02:58:29;;;;;;;;;;;;;;;;;;5138373;27;904;-61
2023/12/09 03:00:54;;;;;;;;;;;;;;;;;;5138304;27;875;-61
2023/12/09 03:03:20;;;;;;;;;;;;;;;;;;5137729;27;1977;-61
2023/12/09 03:05:45;;;;;;;;;;;;;;;;;;5137916;27;839;-61
2023/12/09 03:08:10;;;;;;;;;;;;;;;;;;5137799;27;887;-61
2023/12/09 03:10:36;;;;;;;;;;;;;;;;;;5138628;27;1054;-61
2023/12/09 03:13:01;;;;;;;;;;;;;;;;;;5136800;27;1250;-61
2023/12/09 03:15:26;;;;;;;;;;;;;;;;;;5135377;27;1135;-61
2023/12/09 03:17:51;;;;;;;;;;;;;;;;;;5134395;27;1139;-61
2023/12/09 03:20:18;;;;;;;;;;;;;;;;;;5116501;27;1179;-59
2023/12/09 03:22:43;;;;;;;;;;;;;;;;;;5134890;27;1972;-61
2023/12/09 03:25:08;;;;;;;;;;;;;;;;;;5134894;27;1107;-61
2023/12/09 03:27:33;;;;;;;;;;;;;;;;;;5134436;27;1140;-61
2023/12/09 03:29:59;;;;;;;;;;;;;;;;;;5134908;27;968;-61
2023/12/09 03:32:24;;;;;;;;;;;;;;;;;;5134652;27;1127;-61
2023/12/09 03:34:49;;;;;;;;;;;;;;;;;;5133867;27;1238;-61
2023/12/09 03:37:14;;;;;;;;;;;;;;;;;;5134371;27;1151;-61
2023/12/09 03:39:40;;;;;;;;;;;;;;;;;;5135281;27;1202;-61
2023/12/09 03:42:05;;;;;;;;;;;;;;;;;;5137710;27;1906;-61
2023/12/09 03:44:30;;;;;;;;;;;;;;;;;;5137525;27;1157;-61
2023/12/09 03:46:55;;;;;;;;;;;;;;;;;;5137316;27;852;-61
2023/12/09 03:49:21;;;;;;;;;;;;;;;;;;5119062;27;954;-61
2023/12/09 03:51:46;;;;;;;;;;;;;;;;;;5137522;27;906;-61
2023/12/09 03:54:11;;;;;;;;;;;;;;;;;;5118534;27;880;-61
2023/12/09 03:56:37;;;;;;;;;;;;;;;;;;5137318;27;943;-61
2023/12/09 03:59:02;;;;;;;;;;;;;;;;;;5137171;27;919;-61
2023/12/09 04:01:27;;;;;;;;;;;;;;;;;;5136856;27;1898;-61
2023/12/09 04:03:53;;;;;;;;;;;;;;;;;;5136784;27;959;-61
2023/12/09 04:06:18;;;;;;;;;;;;;;;;;;5137280;27;937;-61
2023/12/09 04:08:44;;;;;;;;;;;;;;;;;;5118618;27;911;-61
2023/12/09 04:11:09;;;;;;;;;;;;;;;;;;5137216;27;832;-61
2023/12/09 04:13:34;;;;;;;;;;;;;;;;;;5136830;27;855;-61
2023/12/09 04:16:00;;;;;;;;;;;;;;;;;;5136655;27;868;-61
2023/12/09 04:18:25;;;;;;;;;;;;;;;;;;5136089;27;915;-61
2023/12/09 04:20:50;;;;;;;;;;;;;;;;;;5136534;27;844;-61
2023/12/09 04:23:16;;;;;;;;;;;;;;;;;;5136670;27;1983;-60
2023/12/09 04:25:41;;;;;;;;;;;;;;;;;;5136610;27;904;-61
2023/12/09 04:28:07;;;;;;;;;;;;;;;;;;5118112;27;951;-60
2023/12/09 04:30:33;;;;;;;;;;;;;;;;;;5137039;27;861;-60
2023/12/09 04:32:58;;;;;;;;;;;;;;;;;;5137092;27;891;-59
2023/12/09 04:35:23;;;;;;;;;;;;;;;;;;5136267;27;1037;-59
2023/12/09 04:37:48;;;;;;;;;;;;;;;;;;5136436;27;1045;-59
2023/12/09 04:40:14;;;;;;;;;;;;;;;;;;5135846;27;959;-59
2023/12/09 04:42:39;;;;;;;;;;;;;;;;;;5136534;27;1954;-59
2023/12/09 04:45:05;;;;;;;;;;;;;;;;;;5136605;27;878;-59
2023/12/09 04:47:31;;;;;;;;;;;;;;;;;;5136398;27;863;-59
2023/12/09 04:49:57;;;;;;;;;;;;;;;;;;5136126;27;895;-59
2023/12/09 04:52:22;;;;;;;;;;;;;;;;;;5135863;27;802;-59
2023/12/09 04:54:47;;;;;;;;;;;;;;;;;;5135650;27;982;-59
2023/12/09 04:57:13;;;;;;;;;;;;;;;;;;5136252;27;1076;-59
2023/12/09 04:59:38;;;;;;;;;;;;;;;;;;5136146;27;998;-59
2023/12/09 05:02:03;;;;;;;;;;;;;;;;;;5134289;27;1955;-59
2023/12/09 05:04:29;;;;;;;;;;;;;;;;;;5132015;27;1202;-60
2023/12/09 05:06:54;;;;;;;;;;;;;;;;;;5132983;27;1179;-59
2023/12/09 05:09:22;;;;;;;;;;;;;;;;;;5133277;27;1203;-59
2023/12/09 05:11:47;;;;;;;;;;;;;;;;;;5117899;27;828;-59
2023/12/09 05:14:12;;;;;;;;;;;;;;;;;;5135716;27;986;-59
2023/12/09 05:16:37;;;;;;;;;;;;;;;;;;5135750;27;826;-59
2023/12/09 05:19:03;;;;;;;;;;;;;;;;;;5135873;27;904;-59
2023/12/09 05:21:29;;;;;;;;;;;;;;;;;;5135249;27;2019;-59
2023/12/09 05:23:54;;;;;;;;;;;;;;;;;;5135160;27;1053;-59
2023/12/09 05:26:23;;;;;;;;;;;;;;;;;;5135452;27;823;-59
2023/12/09 05:28:49;;;;;;;;;;;;;;;;;;5134982;27;841;-59
2023/12/09 05:31:14;;;;;;;;;;;;;;;;;;5135012;27;918;-59
2023/12/09 05:33:40;;;;;;;;;;;;;;;;;;5135552;27;978;-59
2023/12/09 05:36:05;;;;;;;;;;;;;;;;;;5135137;27;1050;-59
2023/12/09 05:38:30;;;;;;;;;;;;;;;;;;5135023;27;1030;-59
2023/12/09 05:40:56;;;;;;;;;;;;;;;;;;5134820;27;941;-59
2023/12/09 05:43:21;;;;;;;;;;;;;;;;;;5135080;27;1989;-59
2023/12/09 05:45:47;;;;;;;;;;;;;;;;;;5134790;27;949;-59
2023/12/09 05:48:12;;;;;;;;;;;;;;;;;;5117147;27;899;-59
2023/12/09 05:50:37;;;;;;;;;;;;;;;;;;5135216;27;812;-59
2023/12/09 05:53:03;;;;;;;;;;;;;;;;;;5135013;27;831;-58
2023/12/09 05:55:28;;;;;;;;;;;;;;;;;;5135087;28;903;-59
2023/12/09 05:57:53;;;;;;;;;;;;;;;;;;5135140;27;1018;-59
2023/12/09 06:00:18;;;;;;;;;;;;;;;;;;5134892;27;1474;-58
2023/12/09 06:02:44;;;;;;;;;;;;;;;;;;5115477;28;1897;-59
2023/12/09 06:05:09;;;;;;;;;;;;;;;;;;5112151;28;1319;-59
2023/12/09 06:07:35;;;;;;;;;;;;;;;;;;5111176;28;1194;-59
2023/12/09 06:10:00;;;;;;;;;;;;;;;;;;5112568;28;1167;-59
2023/12/09 06:12:25;;;;;;;;;;;;;;;;;;5134540;28;1046;-59
2023/12/09 06:14:51;;;;;;;;;;;;;;;;;;5134957;27;823;-59
2023/12/09 06:17:17;;;;;;;;;;;;;;;;;;5134780;28;942;-59
2023/12/09 06:19:43;;;;;;;;;;;;;;;;;;5135320;27;824;-58
2023/12/09 06:22:08;;;;;;;;;;;;;;;;;;5134897;27;1890;-60
2023/12/09 06:24:33;;;;;;;;;;;;;;;;;;5134989;27;993;-59
2023/12/09 06:26:58;;;;;;;;;;;;;;;;;;5134904;27;832;-59
2023/12/09 06:29:24;;;;;;;;;;;;;;;;;;5134541;28;871;-59
2023/12/09 06:31:49;;;;;;;;;;;;;;;;;;5134555;27;829;-59
2023/12/09 06:34:15;;;;;;;;;;;;;;;;;;5135051;28;1098;-59
2023/12/09 06:36:41;;;;;;;;;;;;;;;;;;5134448;27;910;-60
2023/12/09 06:39:06;;;;;;;;;;;;;;;;;;5134886;28;986;-60
2023/12/09 06:41:31;;;;;;;;;;;;;;;;;;5117335;27;1976;-60
2023/12/09 06:43:57;;;;;;;;;;;;;;;;;;5138878;27;852;-58
2023/12/09 06:46:22;;;;;;;;;;;;;;;;;;5138784;27;894;-58
2023/12/09 06:48:47;;;;;;;;;;;;;;;;;;5139381;27;898;-60
2023/12/09 06:51:16;;;;;;;;;;;;;;;;;;5138687;27;878;-60
2023/12/09 06:53:42;;;;;;;;;;;;;;;;;;5119969;27;1687;-60
2023/12/09 06:56:08;;;;;;;;;;;;;;;;;;5138277;27;815;-60
2023/12/09 06:58:33;;;;;;;;;;;;;;;;;;5138506;27;879;-61
2023/12/09 07:00:59;;;;;;;;;;;;;;;;;;5138308;27;895;-61
2023/12/09 07:03:25;;;;;;;;;;;;;;;;;;5137226;27;1965;-61
2023/12/09 07:05:50;;;;;;;;;;;;;;;;;;5133425;27;1210;-61
2023/12/09 07:08:15;;;;;;;;;;;;;;;;;;5134006;27;1136;-61
2023/12/09 07:10:44;;;;;;;;;;;;;;;;;;5137817;27;1231;-61
2023/12/09 07:13:10;;;;;;;;;;;;;;;;;;5119416;27;931;-61
2023/12/09 07:15:35;;;;;;;;;;;;;;;;;;5138100;27;906;-61
2023/12/09 07:18:01;;;;;;;;;;;;;;;;;;5137822;27;851;-60
2023/12/09 07:20:26;;;;;;;;;;;;;;;;;;5137521;27;848;-60
2023/12/09 07:22:51;;;;;;;;;;;;;;;;;;5137738;27;1956;-60
2023/12/09 07:25:16;;;;;;;;;;;;;;;;;;5137592;27;807;-61
2023/12/09 07:27:42;;;;;;;;;;;;;;;;;;5118826;27;893;-60
2023/12/09 07:30:07;;;;;;;;;;;;;;;;;;5137809;27;911;-61
2023/12/09 07:32:32;;;;;;;;;;;;;;;;;;5137527;27;927;-60
2023/12/09 07:34:58;;;;;;;;;;;;;;;;;;5137542;27;801;-60
2023/12/09 07:37:23;;;;;;;;;;;;;;;;;;5137351;27;968;-60
2023/12/09 07:39:48;;;;;;;;;;;;;;;;;;5137344;27;819;-60
2023/12/09 07:42:13;;;;;;;;;;;;;;;;;;5136977;27;1874;-60
2023/12/09 07:44:39;;;;;;;;;;;;;;;;;;5137504;27;851;-60
2023/12/09 07:47:04;;;;;;;;;;;;;;;;;;5118688;27;852;-60
2023/12/09 07:49:29;;;;;;;;;;;;;;;;;;5137171;27;899;-60
2023/12/09 07:51:54;;;;;;;;;;;;;;;;;;5137091;27;994;-59
2023/12/09 07:54:20;;;;;;;;;;;;;;;;;;5136772;27;899;-60
2023/12/09 07:56:45;;;;;;;;;;;;;;;;;;5136585;27;926;-59
2023/12/09 07:59:10;;;;;;;;;;;;;;;;;;5118524;27;985;-59
2023/12/09 08:01:36;;;;;;;;;;;;;;;;;;5138014;27;1901;-59
2023/12/09 08:04:02;;;;;;;;;;;;;;;;;;5117449;27;1198;-59
2023/12/09 08:06:27;;;;;;;;;;;;;;;;;;5132269;27;1341;-59
2023/12/09 08:08:52;;;;;;;;;;;;;;;;;;5115143;27;1195;-59
2023/12/09 08:11:18;;;;;;;;;;;;;;;;;;5136086;27;1120;-59
2023/12/09 08:13:44;;;;;;;;;;;;;;;;;;5136515;27;845;-59
2023/12/09 08:16:10;;;;;;;;;;;;;;;;;;5136724;27;934;-59
2023/12/09 08:18:35;;;;;;;;;;;;;;;;;;5136913;27;880;-59
2023/12/09 08:21:01;;;;;;;;;;;;;;;;;;5136675;27;824;-59
2023/12/09 08:23:27;;;;;;;;;;;;;;;;;;5137276;27;1901;-60
2023/12/09 08:25:52;;;;;;;;;;;;;;;;;;5136947;27;883;-60
2023/12/09 08:28:17;;;;;;;;;;;;;;;;;;5118312;27;880;-60
2023/12/09 08:30:42;;;;;;;;;;;;;;;;;;5137259;27;841;-60
2023/12/09 08:33:08;;;;;;;;;;;;;;;;;;5136572;27;895;-61
2023/12/09 08:35:33;;;;;;;;;;;;;;;;;;5136743;27;910;-60
2023/12/09 08:37:58;;;;;;;;;;;;;;;;;;5118332;27;835;-60
2023/12/09 08:40:24;;;;;;;;;;;;;;;;;;5136341;27;1207;-60
2023/12/09 08:42:49;;;;;;;;;;;;;;;;;;5136180;27;1913;-60
2023/12/09 08:45:16;;;;;;;;;;;;;;;;;;5117689;27;1108;-60
2023/12/09 08:47:41;;;;;;;;;;;;;;;;;;5136481;27;803;-59
2023/12/09 08:50:08;;;;;;;;;;;;;;;;;;5136562;27;990;-59
2023/12/09 08:52:33;;;;;;;;;;;;;;;;;;5136331;27;835;-59
2023/12/09 08:54:59;;;;;;;;;;;;;;;;;;5136619;27;828;-60
2023/12/09 08:57:24;;;;;;;;;;;;;;;;;;5136144;27;895;-60
2023/12/09 08:59:49;;;;;;;;;;;;;;;;;;5136146;27;847;-60
2023/12/09 09:02:15;;;;;;;;;;;;;;;;;;5136144;27;1986;-59
2023/12/09 09:04:40;;;;;;;;;;;;;;;;;;5134648;27;1167;-58
2023/12/09 09:07:06;;;;;;;;;;;;;;;;;;5132457;27;1151;-59
2023/12/09 09:09:32;;;;;;;;;;;;;;;;;;5114708;27;1147;-59
2023/12/09 09:11:57;;;;;;;;;;;;;;;;;;5132973;27;1253;-60
2023/12/09 09:14:22;;;;;;;;;;;;;;;;;;5133212;27;1175;-58
2023/12/09 09:16:47;;;;;;;;;;;;;;;;;;5133108;27;1128;-58
2023/12/09 09:19:13;;;;;;;;;;;;;;;;;;5134160;27;1179;-58
2023/12/09 09:21:40;;;;;;;;;;;;;;;;;;5135439;27;1905;-60
2023/12/09 09:24:06;;;;;;;;;;;;;;;;;;5135360;27;930;-60
2023/12/09 09:26:33;;;;;;;;;;;;;;;;;;5135036;27;1065;-60
2023/12/09 09:28:58;;;;;;;;;;;;;;;;;;5134931;27;912;-61
2023/12/09 09:31:23;;;;;;;;;;;;;;;;;;5133673;27;1250;-60
2023/12/09 09:33:49;;;;;;;;;;;;;;;;;;5133419;27;1269;-60
2023/12/09 09:36:14;;;;;;;;;;;;;;;;;;5135427;27;1016;-60
2023/12/09 09:38:39;;;;;;;;;;;;;;;;;;5135114;27;903;-60
2023/12/09 09:41:07;;;;;;;;;;;;;;;;;;5116768;27;2211;-61
2023/12/09 09:43:37;;;;;;;;;;;;;;;;;;5134773;27;1955;-60
2023/12/09 09:46:03;;;;;;;;;;;;;;;;;;5135000;27;907;-60
2023/12/09 09:48:29;;;;;;;;;;;;;;;;;;5134757;27;923;-60
2023/12/09 09:50:56;;;;;;;;;;;;;;;;;;5135228;27;824;-61
2023/12/09 09:53:34;;;;;;;;;;;;;;;;;;5134971;27;852;-59
2023/12/09 09:56:00;;;;;;;;;;;;;;;;;;5134652;28;855;-59
2023/12/09 09:58:25;;;;;;;;;;;;;;;;;;5134770;28;915;-59
2023/12/09 10:00:54;;;;;;;;;;;;;;;;;;5135463;28;970;-59
2023/12/09 10:03:19;;;;;;;;;;;;;;;;;;5135160;28;1955;-59
2023/12/09 10:05:45;;;;;;;;;;;;;;;;;;5134759;28;1151;-59
2023/12/09 10:08:10;;;;;;;;;;;;;;;;;;5113340;28;1317;-59
2023/12/09 10:10:35;;;;;;;;;;;;;;;;;;5132422;28;1203;-59
2023/12/09 10:13:01;;;;;;;;;;;;;;;;;;5131849;27;1234;-59
2023/12/09 10:15:26;;;;;;;;;;;;;;;;;;5132675;27;1179;-59
2023/12/09 10:17:51;;;;;;;;;;;;;;;;;;5117288;27;1215;-59
2023/12/09 10:20:17;;;;;;;;;;;;;;;;;;5118205;27;1089;-59
2023/12/09 10:22:42;;;;;;;;;;;;;;;;;;5136125;27;1902;-60
2023/12/09 10:25:07;;;;;;;;;;;;;;;;;;5135935;27;1242;-60
2023/12/09 10:27:33;;;;;;;;;;;;;;;;;;5135678;27;1155;-61
2023/12/09 10:29:58;;;;;;;;;;;;;;;;;;5134050;28;1108;-60
2023/12/09 10:32:25;;;;;;;;;;;;;;;;;;5134128;28;1164;-60
2023/12/09 10:34:50;;;;;;;;;;;;;;;;;;5137472;28;1061;-59
2023/12/09 10:37:16;;;;;;;;;;;;;;;;;;5137713;28;1059;-60
2023/12/09 10:39:43;;;;;;;;;;;;;;;;;;5137000;28;863;-61
2023/12/09 10:42:08;;;;;;;;;;;;;;;;;;5137437;28;1918;-60
2023/12/09 10:44:34;;;;;;;;;;;;;;;;;;5137154;28;852;-60
2023/12/09 10:46:59;;;;;;;;;;;;;;;;;;5137472;28;1142;-61
2023/12/09 10:49:24;;;;;;;;;;;;;;;;;;5137482;28;903;-60
2023/12/09 10:51:49;;;;;;;;;;;;;;;;;;5137012;28;966;-60
2023/12/09 10:54:15;;;;;;;;;;;;;;;;;;5136789;28;935;-60
2023/12/09 10:56:40;;;;;;;;;;;;;;;;;;5118802;28;1412;-61
2023/12/09 10:59:06;;;;;;;;;;;;;;;;;;5137385;28;859;-61
2023/12/09 11:01:31;;;;;;;;;;;;;;;;;;5137393;28;871;-61
2023/12/09 11:03:58;;;;;;;;;;;;;;;;;;5136917;28;1981;-61
2023/12/09 11:06:24;;;;;;;;;;;;;;;;;;5137054;28;1175;-61
2023/12/09 11:08:51;;;;;;;;;;;;;;;;;;5133164;28;1168;-61
2023/12/09 11:11:16;;;;;;;;;;;;;;;;;;5133208;28;1147;-60
2023/12/09 11:13:46;;;;;;;;;;;;;;;;;;5133607;28;1167;-60
2023/12/09 11:16:12;;;;;;;;;;;;;;;;;;5132889;28;1104;-59
2023/12/09 11:18:50;;;;;;;;;;;;;;;;;;5133553;28;1132;-61
2023/12/09 11:21:16;;;;;;;;;;;;;;;;;;5132935;28;1163;-60
2023/12/09 11:23:51;;;;;;;;;;;;;;;;;;5114326;28;1978;-60
2023/12/09 11:26:18;;;;;;;;;;;;;;;;;;5133216;28;1112;-60
2023/12/09 11:28:55;;;;;;;;;;;;;;;;;;5090040;27;1194715;-61
2023/12/09 11:31:20;;;;;;;;;;;;;;;;;;5134027;27;1156;-61
2023/12/09 11:33:46;;;;;;;;;;;;;;;;;;5135755;27;1151;-63
2023/12/09 11:36:11;;;;;;;;;;;;;;;;;;5135855;27;1203;-62
2023/12/09 11:38:37;;;;;;;;;;;;;;;;;;5135893;27;1206;-62
2023/12/09 11:41:05;;;;;;;;;;;;;;;;;;5137650;27;1163;-61
2023/12/09 11:43:30;;;;;;;;;;;;;;;;;;5120674;27;1909;-62
2023/12/09 11:45:55;;;;;;;;;;;;;;;;;;5138151;27;991;-62
2023/12/09 11:48:21;;;;;;;;;;;;;;;;;;5137928;27;840;-60
2023/12/09 11:50:47;;;;;;;;;;;;;;;;;;5137944;27;927;-62
2023/12/09 11:53:12;;;;;;;;;;;;;;;;;;5138333;27;981;-63
2023/12/09 11:55:39;;;;;;;;;;;;;;;;;;5138355;27;843;-61
2023/12/09 11:58:04;;;;;;;;;;;;;;;;;;5137379;27;895;-60
2023/12/09 12:00:30;;;;;;;;;;;;;;;;;;5137694;27;919;-61
2023/12/09 12:02:55;;;;;;;;;;;;;;;;;;5137766;27;1905;-61
2023/12/09 12:05:20;;;;;;;;;;;;;;;;;;5139020;27;871;-62
2023/12/09 12:07:45;;;;;;;;;;;;;;;;;;5137598;27;1242;-62
2023/12/09 12:10:11;;;;;;;;;;;;;;;;;;5133888;27;1207;-61
2023/12/09 12:12:36;;;;;;;;;;;;;;;;;;5134544;27;1152;-62
2023/12/09 12:15:02;;;;;;;;;;;;;;;;;;5135035;27;1234;-61
2023/12/09 12:17:36;;;;;;;;;;;;;;;;;;5118369;27;1349;-62
2023/12/09 12:20:01;;;;;;;;;;;;;;;;;;5137148;27;1002;-61
2023/12/09 12:22:26;;;;;;;;;;;;;;;;;;5137182;27;1909;-61
2023/12/09 12:24:53;;;;;;;;;;;;;;;;;;5137285;27;943;-61
2023/12/09 12:27:18;;;;;;;;;;;;;;;;;;5136855;27;828;-61
2023/12/09 12:29:44;;;;;;;;;;;;;;;;;;5136488;27;915;-61
2023/12/09 12:32:13;;;;;;;;;;;;;;;;;;5136784;27;935;-61
2023/12/09 12:34:42;;;;;;;;;;;;;;;;;;5136895;27;913;-64
2023/12/09 12:37:08;;;;;;;;;;;;;;;;;;5137381;27;1073;-64
2023/12/09 12:39:33;;;;;;;;;;;;;;;;;;5135760;27;966;-64
2023/12/09 12:41:58;;;;;;;;;;;;;;;;;;5118023;27;1894;-64
2023/12/09 12:44:24;;;;;;;;;;;;;;;;;;5136900;27;840;-64
2023/12/09 12:46:49;;;;;;;;;;;;;;;;;;5135803;27;1013;-64
2023/12/09 12:49:15;;;;;;;;;;;;;;;;;;5136620;27;950;-64
2023/12/09 12:51:40;;;;;;;;;;;;;;;;;;5136491;27;887;-64
2023/12/09 12:54:05;;;;;;;;;;;;;;;;;;5136174;27;923;-64
2023/12/09 12:56:30;;;;;;;;;;;;;;;;;;5136528;27;832;-64
2023/12/09 12:58:56;;;;;;;;;;;;;;;;;;5136113;27;855;-64
2023/12/09 13:01:21;;;;;;;;;;;;;;;;;;5135509;27;824;-64
2023/12/09 13:03:48;;;;;;;;;;;;;;;;;;5135808;27;1970;-64
2023/12/09 13:06:13;;;;;;;;;;;;;;;;;;5135744;27;864;-64
2023/12/09 13:08:39;;;;;;;;;;;;;;;;;;5135524;27;1451;-64
2023/12/09 13:11:05;;;;;;;;;;;;;;;;;;5134671;27;1262;-63
2023/12/09 13:13:30;;;;;;;;;;;;;;;;;;5134416;27;982;-64
2023/12/09 13:15:56;;;;;;;;;;;;;;;;;;5135354;27;871;-64
2023/12/09 13:18:22;;;;;;;;;;;;;;;;;;5135692;27;982;-64
2023/12/09 13:20:49;;;;;;;;;;;;;;;;;;5135564;27;919;-64
2023/12/09 13:23:15;;;;;;;;;;;;;;;;;;5135653;27;1913;-63
2023/12/09 13:25:40;;;;;;;;;;;;;;;;;;5135597;27;907;-67
2023/12/09 13:28:05;;;;;;;;;;;;;;;;;;5135445;27;870;-63
2023/12/09 13:30:31;;;;;;;;;;;;;;;;;;5135696;27;959;-63
2023/12/09 13:33:06;;;;;;;;;;;;;;;;;;5117317;27;1413;-62
2023/12/09 13:35:31;;;;;;;;;;;;;;;;;;5102043;27;1187;-63
2023/12/09 13:37:57;;;;;;;;;;;;;;;;;;5135196;27;946;-63
2023/12/09 13:40:22;;;;;;;;;;;;;;;;;;5134981;27;920;-63
2023/12/09 13:42:48;;;;;;;;;;;;;;;;;;5135548;27;1913;-63
2023/12/09 13:45:14;;;;;;;;;;;;;;;;;;5135751;27;828;-63
2023/12/09 13:47:39;;;;;;;;;;;;;;;;;;5133806;27;1187;-63
2023/12/09 13:50:05;;;;;;;;;;;;;;;;;;5134221;27;1167;-63
2023/12/09 13:52:31;;;;;;;;;;;;;;;;;;5135430;27;940;-64
2023/12/09 13:54:57;;;;;;;;;;;;;;;;;;5134657;27;836;-61
2023/12/09 13:57:23;;;;;;;;;;;;;;;;;;5135265;28;943;-62
2023/12/09 13:59:48;;;;;;;;;;;;;;;;;;5135315;28;893;-62
2023/12/09 14:02:13;;;;;;;;;;;;;;;;;;5135122;28;1969;-62
2023/12/09 14:04:39;;;;;;;;;;;;;;;;;;5135667;28;951;-62
2023/12/09 14:07:04;;;;;;;;;;;;;;;;;;5135569;28;935;-63
2023/12/09 14:09:30;;;;;;;;;;;;;;;;;;5135177;28;1175;-63
2023/12/09 14:11:55;;;;;;;;;;;;;;;;;;5132256;28;1219;-63
2023/12/09 14:14:21;;;;;;;;;;;;;;;;;;5130880;28;1076;-63
2023/12/09 14:16:46;;;;;;;;;;;;;;;;;;5132631;27;1222;-63
2023/12/09 14:19:11;;;;;;;;;;;;;;;;;;5132420;28;1190;-63
2023/12/09 14:21:38;;;;;;;;;;;;;;;;;;5133253;28;1159;-63
2023/12/09 14:24:03;;;;;;;;;;;;;;;;;;5132176;27;1980;-63
2023/12/09 14:26:28;;;;;;;;;;;;;;;;;;5131447;27;1174;-64
2023/12/09 14:28:55;;;;;;;;;;;;;;;;;;5132028;28;1194;-63
2023/12/09 14:31:20;;;;;;;;;;;;;;;;;;5132046;28;1139;-63
2023/12/09 14:33:46;;;;;;;;;;;;;;;;;;5131984;28;1198;-63
2023/12/09 14:36:11;;;;;;;;;;;;;;;;;;5134070;28;1168;-63
2023/12/09 14:38:36;;;;;;;;;;;;;;;;;;5130715;28;1206;-63
2023/12/09 14:41:02;;;;;;;;;;;;;;;;;;5129425;28;1196;-63
2023/12/09 14:43:27;;;;;;;;;;;;;;;;;;5134908;28;1960;-63
2023/12/09 14:45:52;;;;;;;;;;;;;;;;;;5134720;28;840;-63
2023/12/09 14:48:18;;;;;;;;;;;;;;;;;;5134689;28;830;-63
2023/12/09 14:50:44;;;;;;;;;;;;;;;;;;5134773;28;826;-63
2023/12/09 14:53:12;;;;;;;;;;;;;;;;;;5134849;28;836;-63
2023/12/09 14:55:38;;;;;;;;;;;;;;;;;;5117207;28;901;-64
2023/12/09 14:58:03;;;;;;;;;;;;;;;;;;5134286;28;1050;-64
2023/12/09 15:00:32;;;;;;;;;;;;;;;;;;5134469;28;891;-65
2023/12/09 15:02:58;;;;;;;;;;;;;;;;;;5136283;27;1901;-64
2023/12/09 15:05:23;;;;;;;;;;;;;;;;;;5138290;27;883;-66
2023/12/09 15:07:49;;;;;;;;;;;;;;;;;;5138174;27;1431;-65
2023/12/09 15:10:15;;;;;;;;;;;;;;;;;;5137329;27;1230;-66
2023/12/09 15:12:40;;;;;;;;;;;;;;;;;;5135398;27;1119;-66
2023/12/09 15:15:06;;;;;;;;;;;;;;;;;;5117005;27;1159;-64
2023/12/09 15:17:31;;;;;;;;;;;;;;;;;;5133057;27;1079;-65
2023/12/09 15:19:56;;;;;;;;;;;;;;;;;;5116756;27;1152;-65
2023/12/09 15:22:24;;;;;;;;;;;;;;;;;;5134214;27;1983;-65
2023/12/09 15:24:49;;;;;;;;;;;;;;;;;;5135424;27;1227;-65
2023/12/09 15:27:14;;;;;;;;;;;;;;;;;;5134812;27;1171;-65
2023/12/09 15:29:40;;;;;;;;;;;;;;;;;;5135714;27;1219;-66
2023/12/09 15:32:05;;;;;;;;;;;;;;;;;;5135824;27;1182;-65
2023/12/09 15:34:30;;;;;;;;;;;;;;;;;;5135267;27;1151;-65
2023/12/09 15:36:55;;;;;;;;;;;;;;;;;;5133196;27;1136;-65
2023/12/09 15:39:21;;;;;;;;;;;;;;;;;;5135780;27;1230;-65
2023/12/09 15:41:46;;;;;;;;;;;;;;;;;;5137517;27;1913;-65
2023/12/09 15:44:11;;;;;;;;;;;;;;;;;;5137376;27;896;-65
2023/12/09 15:46:37;;;;;;;;;;;;;;;;;;5138122;27;884;-65
2023/12/09 15:49:02;;;;;;;;;;;;;;;;;;5119178;27;915;-66
2023/12/09 15:51:27;;;;;;;;;;;;;;;;;;5138312;27;975;-61
2023/12/09 15:53:53;;;;;;;;;;;;;;;;;;5137995;27;879;-61
2023/12/09 15:56:18;;;;;;;;;;;;;;;;;;5137929;27;855;-61
2023/12/09 15:58:43;;;;;;;;;;;;;;;;;;5119297;27;898;-61
2023/12/09 16:01:09;;;;;;;;;;;;;;;;;;5137444;27;1743;-61
2023/12/09 16:03:34;;;;;;;;;;;;;;;;;;5137361;27;1913;-61
2023/12/09 16:05:59;;;;;;;;;;;;;;;;;;5137410;27;891;-61
2023/12/09 16:08:24;;;;;;;;;;;;;;;;;;5136895;27;933;-61
2023/12/09 16:10:53;;;;;;;;;;;;;;;;;;5135930;27;1203;-61
2023/12/09 16:13:20;;;;;;;;;;;;;;;;;;5133844;27;1128;-61
2023/12/09 16:15:46;;;;;;;;;;;;;;;;;;5132260;27;1300;-61
2023/12/09 16:18:12;;;;;;;;;;;;;;;;;;5133091;27;1108;-61
2023/12/09 16:20:38;;;;;;;;;;;;;;;;;;5134411;27;1147;-62
2023/12/09 16:23:04;;;;;;;;;;;;;;;;;;5133903;27;1957;-61
2023/12/09 16:25:30;;;;;;;;;;;;;;;;;;5134001;27;1187;-61
2023/12/09 16:27:55;;;;;;;;;;;;;;;;;;5115674;27;1155;-61
2023/12/09 16:30:21;;;;;;;;;;;;;;;;;;5134083;27;1230;-61
2023/12/09 16:32:49;;;;;;;;;;;;;;;;;;5133645;27;1202;-60
2023/12/09 16:35:14;;;;;;;;;;;;;;;;;;5133621;27;1215;-61
2023/12/09 16:37:40;;;;;;;;;;;;;;;;;;5133628;27;1160;-61
2023/12/09 16:40:07;;;;;;;;;;;;;;;;;;5134117;27;1295;-61
2023/12/09 16:42:32;;;;;;;;;;;;;;;;;;5117689;27;1901;-60
2023/12/09 16:44:58;;;;;;;;;;;;;;;;;;5135924;27;855;-62
2023/12/09 16:47:23;;;;;;;;;;;;;;;;;;5136383;27;962;-62
2023/12/09 16:49:48;;;;;;;;;;;;;;;;;;5136313;27;993;-61
2023/12/09 16:52:14;;;;;;;;;;;;;;;;;;5136937;27;902;-61
2023/12/09 16:54:40;;;;;;;;;;;;;;;;;;5136314;27;844;-61
2023/12/09 16:57:05;;;;;;;;;;;;;;;;;;5136672;27;868;-61
2023/12/09 16:59:30;;;;;;;;;;;;;;;;;;5136211;27;1077;-61
2023/12/09 17:01:57;;;;;;;;;;;;;;;;;;5136124;27;1956;-62